Briefing drone pour Davezieux

Rechercher une autre localisation

Conditions de vol :


Nous sommes le : Mercredi 07 décembre 2022
Il est 20:26 UTC (21:26 LT)

Lever de soleil : 06:40 UTC (07:40 LT)
Coucher de soleil : 16:24 UTC (17:24 LT)

Météo

L'essentiel des conditions de vol

VIGILANCE MÉTÉO FRANCE - Ardèche (07)
Pas de vigilances particulieres
METAR de LFMH
LFMH 072000Z AUTO VRB02KT 6000 OVC024 02/01 Q1015

Date d'émission: 07/12/2022
Heure d'émission: 20:00 UTC
Vent: Variable 2 KT (4 km/h)
Visibilité horizontale: 6000 m
Plafond :
- Couvert à 2400ft (732m)
Température: 2 °C
Point de rosée: 1 °C
Humidité: 93%
Pression (QNH): 1015 hPa
TAF de LFMH
LFMH 161901Z 1619/1712 CNL

Conditions prévues :

Heure d'émission : Bulletin éffectué le 16 à 19:00 UTC
Prévision : Valide du 16 a 19:00 UTC au 17 a 12:00 UTC
Nuages : à 0ft (0 m)
WEBCAM POUR DAVEZIEUX

Réglementation

Voler en sécurité

CARTES AERONAUTIQUE 1/500.000
CARTE AZBA (Reseau basse altitude)
CARTES VAC (LFMH)
SUP AIP




Chargement des AIP...
NOTAM (DAVEZIEUX + Terrain à proximité / FIR )




Chargement des NOTAMS...
CONTACT PREFECTURE 07


Avertissement : Les données mises à disposition sont indicatives. Oxygène Drone ne pourra être tenu responsable de dégâts causés aux biens et aux personnes.